sensor_id;sensor_type;location;lat;lon;timestamp;pressure;altitude;pressure_sealevel;temperature;humidity
24013;BME280;12220;50.194;18.948;2022-10-26T00:00:35;102292.23;;;11.35;77.78
24013;BME280;12220;50.194;18.948;2022-10-26T00:02:41;102307.80;;;11.34;77.76
24013;BME280;12220;50.194;18.948;2022-10-26T00:04:50;102293.26;;;11.32;77.67
24013;BME280;12220;50.194;18.948;2022-10-26T00:06:52;102297.03;;;11.30;77.44
24013;BME280;12220;50.194;18.948;2022-10-26T00:08:54;102300.00;;;11.25;77.44
24013;BME280;12220;50.194;18.948;2022-10-26T00:10:58;102298.32;;;11.23;77.52
24013;BME280;12220;50.194;18.948;2022-10-26T00:13:09;102300.22;;;11.21;77.57
24013;BME280;12220;50.194;18.948;2022-10-26T00:15:11;102298.44;;;11.20;77.59
24013;BME280;12220;50.194;18.948;2022-10-26T00:17:12;102294.02;;;11.17;77.50
24013;BME280;12220;50.194;18.948;2022-10-26T00:19:13;102300.52;;;11.14;77.26
24013;BME280;12220;50.194;18.948;2022-10-26T00:21:22;102304.52;;;11.07;77.07
24013;BME280;12220;50.194;18.948;2022-10-26T00:23:23;102309.45;;;10.99;76.93
24013;BME280;12220;50.194;18.948;2022-10-26T00:25:25;102295.44;;;10.86;76.95
24013;BME280;12220;50.194;18.948;2022-10-26T00:27:26;102293.06;;;10.78;77.13
24013;BME280;12220;50.194;18.948;2022-10-26T00:29:37;102300.70;;;10.72;77.32
24013;BME280;12220;50.194;18.948;2022-10-26T00:31:38;102305.48;;;10.67;77.53
24013;BME280;12220;50.194;18.948;2022-10-26T00:33:40;102299.20;;;10.64;77.76
24013;BME280;12220;50.194;18.948;2022-10-26T00:35:41;102291.93;;;10.63;77.94
24013;BME280;12220;50.194;18.948;2022-10-26T00:37:55;102297.33;;;10.65;78.00
24013;BME280;12220;50.194;18.948;2022-10-26T00:39:56;102300.07;;;10.65;78.03
24013;BME280;12220;50.194;18.948;2022-10-26T00:41:58;102298.13;;;10.67;78.02
24013;BME280;12220;50.194;18.948;2022-10-26T00:43:59;102292.73;;;10.66;77.74
24013;BME280;12220;50.194;18.948;2022-10-26T00:46:17;102299.26;;;10.63;77.47
24013;BME280;12220;50.194;18.948;2022-10-26T00:48:25;102294.18;;;10.54;77.20
24013;BME280;12220;50.194;18.948;2022-10-26T00:50:34;102310.13;;;10.44;77.14
24013;BME280;12220;50.194;18.948;2022-10-26T00:52:37;102302.27;;;10.36;77.40
24013;BME280;12220;50.194;18.948;2022-10-26T00:54:39;102295.10;;;10.32;77.68
24013;BME280;12220;50.194;18.948;2022-10-26T00:56:40;102292.51;;;10.29;77.89
24013;BME280;12220;50.194;18.948;2022-10-26T00:58:42;102297.91;;;10.30;78.00
24013;BME280;12220;50.194;18.948;2022-10-26T01:00:44;102298.83;;;10.31;77.92
24013;BME280;12220;50.194;18.948;2022-10-26T01:02:48;102300.72;;;10.29;77.75
24013;BME280;12220;50.194;18.948;2022-10-26T01:04:51;102302.78;;;10.24;77.52
24013;BME280;12220;50.194;18.948;2022-10-26T01:06:53;102293.88;;;10.19;77.47
24013;BME280;12220;50.194;18.948;2022-10-26T01:08:55;102299.63;;;10.12;77.46
24013;BME280;12220;50.194;18.948;2022-10-26T01:11:04;102301.72;;;10.06;77.46
24013;BME280;12220;50.194;18.948;2022-10-26T01:13:05;102299.05;;;10.04;77.76
24013;BME280;12220;50.194;18.948;2022-10-26T01:15:07;102295.50;;;10.02;77.91
24013;BME280;12220;50.194;18.948;2022-10-26T01:24:19;102313.52;;;10.08;78.12
24013;BME280;12220;50.194;18.948;2022-10-26T01:31:10;102299.90;;;10.06;77.75
24013;BME280;12220;50.194;18.948;2022-10-26T01:35:32;102230.45;;;9.66;77.60
24013;BME280;12220;50.194;18.948;2022-10-26T01:37:45;102290.30;;;9.96;77.65
24013;BME280;12220;50.194;18.948;2022-10-26T01:39:54;102282.33;;;9.90;77.71
24013;BME280;12220;50.194;18.948;2022-10-26T01:42:00;102291.45;;;9.90;77.86
24013;BME280;12220;50.194;18.948;2022-10-26T01:46:17;102295.00;;;9.92;77.99
24013;BME280;12220;50.194;18.948;2022-10-26T01:48:19;102299.45;;;9.95;78.03
24013;BME280;12220;50.194;18.948;2022-10-26T01:50:23;102293.04;;;9.96;78.06
24013;BME280;12220;50.194;18.948;2022-10-26T01:52:26;102292.06;;;9.97;78.05
24013;BME280;12220;50.194;18.948;2022-10-26T01:54:28;102295.71;;;9.98;78.00
24013;BME280;12220;50.194;18.948;2022-10-26T01:56:36;102289.25;;;9.99;77.96
24013;BME280;12220;50.194;18.948;2022-10-26T01:58:55;102288.31;;;10.00;77.93
24013;BME280;12220;50.194;18.948;2022-10-26T02:03:22;102295.63;;;9.99;77.94
24013;BME280;12220;50.194;18.948;2022-10-26T02:07:49;102294.55;;;10.03;77.84
24013;BME280;12220;50.194;18.948;2022-10-26T02:12:06;102294.55;;;10.03;77.59
24013;BME280;12220;50.194;18.948;2022-10-26T02:14:24;102296.45;;;10.01;77.61
24013;BME280;12220;50.194;18.948;2022-10-26T02:20:50;102304.66;;;10.01;77.83
24013;BME280;12220;50.194;18.948;2022-10-26T02:22:54;102305.53;;;10.02;77.67
24013;BME280;12220;50.194;18.948;2022-10-26T02:25:04;102301.92;;;10.01;77.64
24013;BME280;12220;50.194;18.948;2022-10-26T02:27:12;102301.10;;;9.99;77.78
24013;BME280;12220;50.194;18.948;2022-10-26T02:29:17;102299.32;;;9.98;77.83
24013;BME280;12220;50.194;18.948;2022-10-26T02:31:20;102299.26;;;10.00;77.88
24013;BME280;12220;50.194;18.948;2022-10-26T02:33:23;102291.91;;;10.00;77.92
24013;BME280;12220;50.194;18.948;2022-10-26T02:35:28;102288.31;;;10.00;78.00
24013;BME280;12220;50.194;18.948;2022-10-26T02:37:32;102301.86;;;10.03;78.07
24013;BME280;12220;50.194;18.948;2022-10-26T02:39:35;102304.59;;;10.03;77.92
24013;BME280;12220;50.194;18.948;2022-10-26T02:41:40;102302.77;;;10.03;77.79
24013;BME280;12220;50.194;18.948;2022-10-26T02:43:51;102307.40;;;10.01;77.84
24013;BME280;12220;50.194;18.948;2022-10-26T02:45:58;102306.58;;;9.99;77.90
24013;BME280;12220;50.194;18.948;2022-10-26T02:48:00;102311.08;;;10.00;78.00
24013;BME280;12220;50.194;18.948;2022-10-26T02:50:03;102308.34;;;10.00;78.04
24013;BME280;12220;50.194;18.948;2022-10-26T02:52:11;102300.13;;;10.00;78.08
24013;BME280;12220;50.194;18.948;2022-10-26T02:54:27;102302.87;;;10.00;78.14
24013;BME280;12220;50.194;18.948;2022-10-26T02:56:34;102290.98;;;10.01;78.22
24013;BME280;12220;50.194;18.948;2022-10-26T02:58:42;102294.48;;;10.05;78.32
24013;BME280;12220;50.194;18.948;2022-10-26T03:00:46;102296.18;;;10.07;78.35
24013;BME280;12220;50.194;18.948;2022-10-26T03:02:52;102300.63;;;10.10;78.39
24013;BME280;12220;50.194;18.948;2022-10-26T03:04:55;102300.57;;;10.11;78.46
24013;BME280;12220;50.194;18.948;2022-10-26T03:06:56;102305.90;;;10.15;78.53
24013;BME280;12220;50.194;18.948;2022-10-26T03:09:01;102309.41;;;10.18;78.53
24013;BME280;12220;50.194;18.948;2022-10-26T03:11:02;102303.87;;;10.20;78.58
24013;BME280;12220;50.194;18.948;2022-10-26T03:13:04;102305.66;;;10.21;78.50
24013;BME280;12220;50.194;18.948;2022-10-26T03:15:05;102304.68;;;10.22;78.50
24013;BME280;12220;50.194;18.948;2022-10-26T03:17:16;102303.73;;;10.23;78.50
24013;BME280;12220;50.194;18.948;2022-10-26T03:19:17;102302.78;;;10.24;78.52
24013;BME280;12220;50.194;18.948;2022-10-26T03:21:18;102300.86;;;10.26;78.52
24013;BME280;12220;50.194;18.948;2022-10-26T03:23:19;102308.05;;;10.28;78.48
24013;BME280;12220;50.194;18.948;2022-10-26T03:25:31;102309.00;;;10.27;78.32
24013;BME280;12220;50.194;18.948;2022-10-26T03:27:32;102313.60;;;10.27;78.24
24013;BME280;12220;50.194;18.948;2022-10-26T03:29:34;102314.62;;;10.24;78.39
24013;BME280;12220;50.194;18.948;2022-10-26T03:31:36;102312.82;;;10.23;78.38
24013;BME280;12220;50.194;18.948;2022-10-26T03:33:46;102319.21;;;10.24;78.34
24013;BME280;12220;50.194;18.948;2022-10-26T03:35:55;102316.55;;;10.22;78.32
24013;BME280;12220;50.194;18.948;2022-10-26T03:37:59;102319.36;;;10.21;78.32
24013;BME280;12220;50.194;18.948;2022-10-26T03:40:00;102318.44;;;10.20;78.28
24013;BME280;12220;50.194;18.948;2022-10-26T03:42:07;102318.52;;;10.19;78.24
24013;BME280;12220;50.194;18.948;2022-10-26T03:44:09;102317.77;;;10.15;78.29
24013;BME280;12220;50.194;18.948;2022-10-26T03:46:10;102318.77;;;10.12;78.37
24013;BME280;12220;50.194;18.948;2022-10-26T03:48:11;102316.11;;;10.11;78.47
24013;BME280;12220;50.194;18.948;2022-10-26T03:50:14;102318.86;;;10.11;78.59
24013;BME280;12220;50.194;18.948;2022-10-26T03:52:15;102321.52;;;10.12;78.66
24013;BME280;12220;50.194;18.948;2022-10-26T03:54:17;102326.05;;;10.14;78.73
24013;BME280;12220;50.194;18.948;2022-10-26T03:56:21;102314.05;;;10.16;78.74
24013;BME280;12220;50.194;18.948;2022-10-26T03:58:23;102316.72;;;10.18;78.77
24013;BME280;12220;50.194;18.948;2022-10-26T04:00:24;102318.44;;;10.20;78.75
24013;BME280;12220;50.194;18.948;2022-10-26T04:02:25;102318.44;;;10.20;78.71
24013;BME280;12220;50.194;18.948;2022-10-26T04:04:26;102315.64;;;10.22;78.60
24013;BME280;12220;50.194;18.948;2022-10-26T04:06:27;102323.91;;;10.20;78.39
24013;BME280;12220;50.194;18.948;2022-10-26T04:08:29;102313.10;;;10.17;78.19
24013;BME280;12220;50.194;18.948;2022-10-26T04:10:40;102322.46;;;10.11;78.10
24013;BME280;12220;50.194;18.948;2022-10-26T04:12:41;102331.77;;;10.07;78.09
24013;BME280;12220;50.194;18.948;2022-10-26T04:14:42;102322.88;;;10.02;78.09
24013;BME280;12220;50.194;18.948;2022-10-26T04:16:44;102326.69;;;9.98;78.16
24013;BME280;12220;50.194;18.948;2022-10-26T04:18:45;102329.56;;;9.95;78.25
24013;BME280;12220;50.194;18.948;2022-10-26T04:20:46;102330.56;;;9.92;78.19
24013;BME280;12220;50.194;18.948;2022-10-26T04:22:47;102335.30;;;9.89;78.06
24013;BME280;12220;50.194;18.948;2022-10-26T04:24:53;102345.46;;;9.85;77.99
24013;BME280;12220;50.194;18.948;2022-10-26T04:26:55;102337.45;;;9.81;78.08
24013;BME280;12220;50.194;18.948;2022-10-26T04:28:56;102333.05;;;9.76;78.21
24013;BME280;12220;50.194;18.948;2022-10-26T04:30:57;102341.26;;;9.76;78.33
24013;BME280;12220;50.194;18.948;2022-10-26T04:33:07;102335.78;;;9.76;78.38
24013;BME280;12220;50.194;18.948;2022-10-26T04:35:09;102342.14;;;9.77;78.41
24013;BME280;12220;50.194;18.948;2022-10-26T04:37:10;102335.78;;;9.76;78.42
24013;BME280;12220;50.194;18.948;2022-10-26T04:39:11;102337.52;;;9.79;78.40
24013;BME280;12220;50.194;18.948;2022-10-26T04:41:22;102337.52;;;9.79;78.31
24013;BME280;12220;50.194;18.948;2022-10-26T04:43:23;102332.99;;;9.78;78.31
24013;BME280;12220;50.194;18.948;2022-10-26T04:45:25;102341.20;;;9.78;78.31
24013;BME280;12220;50.194;18.948;2022-10-26T04:47:30;102331.16;;;9.79;78.25
24013;BME280;12220;50.194;18.948;2022-10-26T04:49:39;102336.68;;;9.77;78.15
24013;BME280;12220;50.194;18.948;2022-10-26T04:51:40;102337.64;;;9.76;78.13
24013;BME280;12220;50.194;18.948;2022-10-26T04:53:41;102336.80;;;9.74;78.14
24013;BME280;12220;50.194;18.948;2022-10-26T04:55:42;102334.06;;;9.74;78.17
24013;BME280;12220;50.194;18.948;2022-10-26T04:57:44;102330.45;;;9.73;78.21
24013;BME280;12220;50.194;18.948;2022-10-26T04:59:45;102334.06;;;9.74;78.20
24013;BME280;12220;50.194;18.948;2022-10-26T05:01:47;102330.45;;;9.73;78.20
24013;BME280;12220;50.194;18.948;2022-10-26T05:03:53;102337.71;;;9.74;78.16
24013;BME280;12220;50.194;18.948;2022-10-26T05:05:57;102325.91;;;9.72;78.14
24013;BME280;12220;50.194;18.948;2022-10-26T05:07:59;102331.39;;;9.72;78.13
24013;BME280;12220;50.194;18.948;2022-10-26T05:10:02;102325.99;;;9.71;78.12
24013;BME280;12220;50.194;18.948;2022-10-26T05:12:07;102325.04;;;9.72;78.11
24013;BME280;12220;50.194;18.948;2022-10-26T05:14:08;102334.20;;;9.71;78.06
24013;BME280;12220;50.194;18.948;2022-10-26T05:16:10;102325.11;;;9.70;78.02
24013;BME280;12220;50.194;18.948;2022-10-26T05:18:14;102326.05;;;9.69;78.01
24013;BME280;12220;50.194;18.948;2022-10-26T05:20:22;102323.31;;;9.69;77.99
24013;BME280;12220;50.194;18.948;2022-10-26T05:22:30;102328.86;;;9.68;77.93
24013;BME280;12220;50.194;18.948;2022-10-26T05:24:31;102335.34;;;9.65;77.82
24013;BME280;12220;50.194;18.948;2022-10-26T05:26:33;102336.44;;;9.61;77.59
24013;BME280;12220;50.194;18.948;2022-10-26T05:28:37;102337.52;;;9.57;77.48
24013;BME280;12220;50.194;18.948;2022-10-26T05:30:43;102344.13;;;9.51;77.45
24013;BME280;12220;50.194;18.948;2022-10-26T05:32:53;102339.84;;;9.44;77.49
24013;BME280;12220;50.194;18.948;2022-10-26T05:34:54;102334.49;;;9.41;77.61
24013;BME280;12220;50.194;18.948;2022-10-26T05:36:55;102339.05;;;9.40;77.70
24013;BME280;12220;50.194;18.948;2022-10-26T05:38:57;102339.11;;;9.39;77.79
24013;BME280;12220;50.194;18.948;2022-10-26T05:40:59;102340.98;;;9.38;77.73
24013;BME280;12220;50.194;18.948;2022-10-26T05:43:02;102341.85;;;9.39;77.71
24013;BME280;12220;50.194;18.948;2022-10-26T05:45:07;102344.66;;;9.37;77.71
24013;BME280;12220;50.194;18.948;2022-10-26T05:47:09;102353.76;;;9.38;77.73
24013;BME280;12220;50.194;18.948;2022-10-26T05:49:10;102348.36;;;9.36;77.70
24013;BME280;12220;50.194;18.948;2022-10-26T05:51:11;102353.83;;;9.36;77.62
24013;BME280;12220;50.194;18.948;2022-10-26T05:53:26;102344.77;;;9.34;77.59
24013;BME280;12220;50.194;18.948;2022-10-26T05:55:27;102353.16;;;9.30;77.54
24013;BME280;12220;50.194;18.948;2022-10-26T05:57:29;102362.30;;;9.29;77.58
24013;BME280;12220;50.194;18.948;2022-10-26T05:59:31;102354.23;;;9.25;77.53
24013;BME280;12220;50.194;18.948;2022-10-26T06:04:08;102352.62;;;9.20;77.51
24013;BME280;12220;50.194;18.948;2022-10-26T06:06:21;102357.33;;;9.16;77.49
24013;BME280;12220;50.194;18.948;2022-10-26T06:08:24;102363.86;;;9.12;77.58
24013;BME280;12220;50.194;18.948;2022-10-26T06:10:30;102361.17;;;9.11;77.65
24013;BME280;12220;50.194;18.948;2022-10-26T06:12:32;102371.26;;;9.08;77.68
24013;BME280;12220;50.194;18.948;2022-10-26T06:14:36;102368.59;;;9.07;77.77
24013;BME280;12220;50.194;18.948;2022-10-26T06:19:02;102376.02;;;9.03;77.86
24013;BME280;12220;50.194;18.948;2022-10-26T06:30:05;102383.05;;;9.11;78.16
24013;BME280;12220;50.194;18.948;2022-10-26T06:32:09;102399.38;;;9.12;78.11
24013;BME280;12220;50.194;18.948;2022-10-26T06:34:17;102382.98;;;9.12;78.17
24013;BME280;12220;50.194;18.948;2022-10-26T06:36:24;102391.13;;;9.14;78.21
24013;BME280;12220;50.194;18.948;2022-10-26T06:38:28;102395.53;;;9.18;78.16
24013;BME280;12220;50.194;18.948;2022-10-26T06:40:39;102400.06;;;9.19;78.08
24013;BME280;12220;50.194;18.948;2022-10-26T06:42:42;102393.73;;;9.17;78.14
24013;BME280;12220;50.194;18.948;2022-10-26T06:44:44;102395.53;;;9.18;78.20
24013;BME280;12220;50.194;18.948;2022-10-26T06:46:53;102404.54;;;9.20;78.30
24013;BME280;12220;50.194;18.948;2022-10-26T06:49:05;102407.16;;;9.23;78.31
24013;BME280;12220;50.194;18.948;2022-10-26T06:51:14;102402.61;;;9.23;78.39
24013;BME280;12220;50.194;18.948;2022-10-26T06:53:23;102393.38;;;9.26;78.51
24013;BME280;12220;50.194;18.948;2022-10-26T06:55:30;102396.96;;;9.28;78.63
24013;BME280;12220;50.194;18.948;2022-10-26T06:57:36;102403.19;;;9.32;78.76
24013;BME280;12220;50.194;18.948;2022-10-26T07:01:53;102400.18;;;9.39;78.95
24013;BME280;12220;50.194;18.948;2022-10-26T07:03:54;102402.80;;;9.42;79.06
24013;BME280;12220;50.194;18.948;2022-10-26T07:05:55;102399.88;;;9.47;79.15
24013;BME280;12220;50.194;18.948;2022-10-26T07:07:56;102400.63;;;9.51;79.21
24013;BME280;12220;50.194;18.948;2022-10-26T07:10:09;102398.62;;;9.56;79.33
24013;BME280;12220;50.194;18.948;2022-10-26T07:12:11;102402.17;;;9.58;79.40
24013;BME280;12220;50.194;18.948;2022-10-26T07:14:12;102399.34;;;9.61;79.51
24013;BME280;12220;50.194;18.948;2022-10-26T07:16:13;102409.18;;;9.65;79.60
24013;BME280;12220;50.194;18.948;2022-10-26T07:18:23;102401.83;;;9.67;79.69
24013;BME280;12220;50.194;18.948;2022-10-26T07:20:24;102165.75;;;8.29;79.69
24013;BME280;12220;50.194;18.948;2022-10-26T07:22:27;102410.61;;;9.75;79.99
24013;BME280;12220;50.194;18.948;2022-10-26T07:24:29;102414.13;;;9.79;80.13
24013;BME280;12220;50.194;18.948;2022-10-26T07:26:38;102411.27;;;9.82;80.25
24013;BME280;12220;50.194;18.948;2022-10-26T07:28:39;102419.27;;;9.87;80.45
24013;BME280;12220;50.194;18.948;2022-10-26T07:30:41;102417.26;;;9.92;80.65
24013;BME280;12220;50.194;18.948;2022-10-26T07:32:42;102409.73;;;9.97;80.85
24013;BME280;12220;50.194;18.948;2022-10-26T07:34:53;102418.60;;;10.04;81.05
24013;BME280;12220;50.194;18.948;2022-10-26T07:36:54;102408.34;;;10.09;81.29
24013;BME280;12220;50.194;18.948;2022-10-26T07:38:56;102411.79;;;10.14;81.47
24013;BME280;12220;50.194;18.948;2022-10-26T07:40:57;102410.64;;;10.20;81.63
24013;BME280;12220;50.194;18.948;2022-10-26T07:43:08;102416.73;;;10.26;81.78
24013;BME280;12220;50.194;18.948;2022-10-26T07:45:09;102418.29;;;10.34;82.05
24013;BME280;12220;50.194;18.948;2022-10-26T07:47:11;102415.26;;;10.41;82.29
24013;BME280;12220;50.194;18.948;2022-10-26T07:49:12;102418.53;;;10.50;82.47
24013;BME280;12220;50.194;18.948;2022-10-26T07:51:23;102414.56;;;10.57;82.62
24013;BME280;12220;50.194;18.948;2022-10-26T07:53:25;102419.81;;;10.63;82.83
24013;BME280;12220;50.194;18.948;2022-10-26T07:55:26;102420.35;;;10.71;83.05
24013;BME280;12220;50.194;18.948;2022-10-26T07:57:28;102414.48;;;10.80;83.36
24013;BME280;12220;50.194;18.948;2022-10-26T07:59:38;102421.18;;;10.94;83.67
24013;BME280;12220;50.194;18.948;2022-10-26T08:01:39;102419.81;;;11.04;83.91
24013;BME280;12220;50.194;18.948;2022-10-26T08:03:41;102426.65;;;11.14;84.07
24013;BME280;12220;50.194;18.948;2022-10-26T08:05:44;102423.40;;;11.25;84.43
24013;BME280;12220;50.194;18.948;2022-10-26T08:07:55;102415.50;;;11.38;84.54
24013;BME280;12220;50.194;18.948;2022-10-26T08:09:56;102417.67;;;11.50;84.72
24013;BME280;12220;50.194;18.948;2022-10-26T08:11:57;102415.17;;;11.65;84.88
24013;BME280;12220;50.194;18.948;2022-10-26T08:13:59;102413.69;;;11.77;84.93
24013;BME280;12220;50.194;18.948;2022-10-26T08:16:10;102417.67;;;11.89;84.86
24013;BME280;12220;50.194;18.948;2022-10-26T08:18:12;102414.59;;;11.96;84.83
24013;BME280;12220;50.194;18.948;2022-10-26T08:20:16;102416.86;;;12.06;84.91
24013;BME280;12220;50.194;18.948;2022-10-26T08:22:17;102413.67;;;12.15;84.91
24013;BME280;12220;50.194;18.948;2022-10-26T08:24:25;102415.08;;;12.24;84.95
24013;BME280;12220;50.194;18.948;2022-10-26T08:26:26;102421.88;;;12.34;85.07
24013;BME280;12220;50.194;18.948;2022-10-26T08:28:28;102413.16;;;12.43;85.23
24013;BME280;12220;50.194;18.948;2022-10-26T08:30:30;102416.23;;;12.54;85.33
24013;BME280;12220;50.194;18.948;2022-10-26T08:32:40;102422.96;;;12.66;85.48
24013;BME280;12220;50.194;18.948;2022-10-26T08:34:42;102415.13;;;12.76;85.26
24013;BME280;12220;50.194;18.948;2022-10-26T08:36:44;102404.54;;;12.86;85.10
24013;BME280;12220;50.194;18.948;2022-10-26T08:38:46;102408.58;;;12.96;84.85
24013;BME280;12220;50.194;18.948;2022-10-26T08:40:56;102403.53;;;13.04;84.70
24013;BME280;12220;50.194;18.948;2022-10-26T08:45:21;102401.83;;;13.19;84.45
24013;BME280;12220;50.194;18.948;2022-10-26T08:47:29;102405.03;;;13.28;84.34
24013;BME280;12220;50.194;18.948;2022-10-26T08:49:42;102397.38;;;13.34;84.22
24013;BME280;12220;50.194;18.948;2022-10-26T08:51:46;102395.88;;;13.45;84.04
24013;BME280;12220;50.194;18.948;2022-10-26T08:54:07;102398.19;;;13.52;83.87
24013;BME280;12220;50.194;18.948;2022-10-26T08:56:23;102401.41;;;13.60;83.58
24013;BME280;12220;50.194;18.948;2022-10-26T08:58:32;102400.09;;;13.68;83.44
24013;BME280;12220;50.194;18.948;2022-10-26T09:00:37;102404.09;;;13.78;83.07
24013;BME280;12220;50.194;18.948;2022-10-26T09:02:39;102398.05;;;13.87;82.81
24013;BME280;12220;50.194;18.948;2022-10-26T09:04:41;102398.41;;;13.97;82.61
24013;BME280;12220;50.194;18.948;2022-10-26T09:06:50;102394.41;;;14.03;82.43
24013;BME280;12220;50.194;18.948;2022-10-26T09:13:33;102398.57;;;14.26;81.85
24013;BME280;12220;50.194;18.948;2022-10-26T09:15:47;102401.73;;;14.34;81.59
24013;BME280;12220;50.194;18.948;2022-10-26T09:22:37;102407.94;;;14.54;80.98
24013;BME280;12220;50.194;18.948;2022-10-26T09:24:54;102406.77;;;14.58;80.80
24013;BME280;12220;50.194;18.948;2022-10-26T09:29:13;102406.04;;;14.70;80.24
24013;BME280;12220;50.194;18.948;2022-10-26T09:31:16;102412.87;;;14.79;79.63
24013;BME280;12220;50.194;18.948;2022-10-26T09:33:21;102408.55;;;14.89;79.21
24013;BME280;12220;50.194;18.948;2022-10-26T09:35:32;102416.28;;;14.98;79.00
24013;BME280;12220;50.194;18.948;2022-10-26T09:37:39;102414.02;;;15.05;78.88
24013;BME280;12220;50.194;18.948;2022-10-26T09:39:59;102414.61;;;15.10;78.65
24013;BME280;12220;50.194;18.948;2022-10-26T09:42:13;102419.94;;;15.13;78.59
24013;BME280;12220;50.194;18.948;2022-10-26T09:44:41;102420.72;;;15.15;78.53
24013;BME280;12220;50.194;18.948;2022-10-26T09:46:44;102425.17;;;15.18;78.37
24013;BME280;12220;50.194;18.948;2022-10-26T09:48:51;102404.87;;;15.19;78.27
24013;BME280;12220;50.194;18.948;2022-10-26T09:50:54;102422.11;;;15.23;78.31
24013;BME280;12220;50.194;18.948;2022-10-26T09:52:59;102412.56;;;15.28;78.15
24013;BME280;12220;50.194;18.948;2022-10-26T09:55:00;102412.96;;;15.37;78.11
24013;BME280;12220;50.194;18.948;2022-10-26T09:57:03;102414.26;;;15.45;78.05
24013;BME280;12220;50.194;18.948;2022-10-26T09:59:09;102410.20;;;15.51;77.63
24013;BME280;12220;50.194;18.948;2022-10-26T10:03:28;102414.04;;;15.63;77.20
24013;BME280;12220;50.194;18.948;2022-10-26T10:05:33;102414.72;;;15.66;76.85
24013;BME280;12220;50.194;18.948;2022-10-26T10:07:40;102408.02;;;15.71;76.67
24013;BME280;12220;50.194;18.948;2022-10-26T10:09:41;102411.38;;;15.76;76.27
24013;BME280;12220;50.194;18.948;2022-10-26T10:11:51;102406.23;;;15.84;75.60
24013;BME280;12220;50.194;18.948;2022-10-26T10:14:04;102410.28;;;15.93;75.30
24013;BME280;12220;50.194;18.948;2022-10-26T10:16:13;102411.76;;;15.98;75.18
24013;BME280;12220;50.194;18.948;2022-10-26T10:18:19;102416.08;;;16.02;75.10
24013;BME280;12220;50.194;18.948;2022-10-26T10:20:31;102408.57;;;16.04;75.02
24013;BME280;12220;50.194;18.948;2022-10-26T10:22:33;102413.99;;;16.06;74.34
24013;BME280;12220;50.194;18.948;2022-10-26T10:24:35;102402.87;;;16.08;74.18
24013;BME280;12220;50.194;18.948;2022-10-26T10:27:25;102410.84;;;16.12;73.99
24013;BME280;12220;50.194;18.948;2022-10-26T10:29:00;102405.98;;;16.16;73.89
24013;BME280;12220;50.194;18.948;2022-10-26T10:31:17;102406.57;;;16.21;73.97
24013;BME280;12220;50.194;18.948;2022-10-26T10:33:11;102404.47;;;16.25;73.74
24013;BME280;12220;50.194;18.948;2022-10-26T10:35:22;102404.04;;;16.31;73.58
24013;BME280;12220;50.194;18.948;2022-10-26T10:37:30;102416.56;;;16.36;72.78
24013;BME280;12220;50.194;18.948;2022-10-26T10:39:41;102405.29;;;16.39;72.77
24013;BME280;12220;50.194;18.948;2022-10-26T10:41:43;102407.88;;;16.43;72.58
24013;BME280;12220;50.194;18.948;2022-10-26T10:45:58;102419.96;;;16.54;72.24
24013;BME280;12220;50.194;18.948;2022-10-26T10:50:18;102411.13;;;16.62;71.99
24013;BME280;12220;50.194;18.948;2022-10-26T10:52:25;102414.66;;;16.64;71.64
24013;BME280;12220;50.194;18.948;2022-10-26T10:54:34;102411.89;;;16.64;70.81
24013;BME280;12220;50.194;18.948;2022-10-26T10:56:40;102414.37;;;16.69;70.86
24013;BME280;12220;50.194;18.948;2022-10-26T11:00:58;102410.18;;;16.76;70.89
24013;BME280;12220;50.194;18.948;2022-10-26T11:05:22;102403.52;;;16.79;70.88
24013;BME280;12220;50.194;18.948;2022-10-26T11:07:29;102415.50;;;16.79;70.85
24013;BME280;12220;50.194;18.948;2022-10-26T11:09:36;102208.03;;;15.60;70.81
24013;BME280;12220;50.194;18.948;2022-10-26T11:11:47;102405.42;;;16.78;70.86
24013;BME280;12220;50.194;18.948;2022-10-26T11:14:01;102411.81;;;16.79;70.63
24013;BME280;12220;50.194;18.948;2022-10-26T11:16:14;102410.83;;;16.80;69.14
24013;BME280;12220;50.194;18.948;2022-10-26T11:18:23;102402.32;;;16.83;67.81
24013;BME280;12220;50.194;18.948;2022-10-26T11:20:28;102405.48;;;16.91;67.43
24013;BME280;12220;50.194;18.948;2022-10-26T11:22:38;102404.92;;;16.99;67.68
24013;BME280;12220;50.194;18.948;2022-10-26T11:27:21;102408.69;;;17.11;67.80
24013;BME280;12220;50.194;18.948;2022-10-26T11:29:11;102404.48;;;17.18;66.94
24013;BME280;12220;50.194;18.948;2022-10-26T11:31:22;102404.26;;;17.21;65.02
24013;BME280;12220;50.194;18.948;2022-10-26T11:33:31;102408.14;;;17.31;65.61
24013;BME280;12220;50.194;18.948;2022-10-26T11:42:56;102402.06;;;17.52;65.33
24013;BME280;12220;50.194;18.948;2022-10-26T11:47:36;102402.71;;;17.55;64.70
24013;BME280;12220;50.194;18.948;2022-10-26T11:50:03;102404.26;;;17.59;64.04
24013;BME280;12220;50.194;18.948;2022-10-26T11:54:37;102405.92;;;17.62;64.46
24013;BME280;12220;50.194;18.948;2022-10-26T11:56:46;102401.37;;;17.61;63.96
24013;BME280;12220;50.194;18.948;2022-10-26T11:58:49;102395.71;;;17.63;63.95
24013;BME280;12220;50.194;18.948;2022-10-26T12:03:11;102394.38;;;17.68;63.93
24013;BME280;12220;50.194;18.948;2022-10-26T12:07:37;102395.13;;;17.70;63.56
24013;BME280;12220;50.194;18.948;2022-10-26T12:09:43;102408.47;;;17.52;63.37
24013;BME280;12220;50.194;18.948;2022-10-26T12:11:54;102401.88;;;17.79;63.48
24013;BME280;12220;50.194;18.948;2022-10-26T12:14:04;102403.66;;;17.80;62.58
24013;BME280;12220;50.194;18.948;2022-10-26T12:18:33;102402.43;;;17.84;63.14